This is the latest recevied weather packets stored in our database for station/object KD5HIA. If no packets are shown the sender has not sent any weather packets the latest 10 day(s).
| Time | Temp. | Humidity | Pressure | Rain* | Wind** | Luminosity | Snow |
|---|---|---|---|---|---|---|---|
| 1778014217 | 33.33° C | 27% | 1006.9 hPa | 0 mm | - | 484 W/m² | - |
| 1778013617 | 33.89° C | 27% | 1007 hPa | 0 mm | - | 750 W/m² | - |
| 1778013017 | 33.33° C | 27% | 1007 hPa | 0 mm | - | 554 W/m² | - |
| 1778012417 | 33.33° C | 25% | 1007 hPa | 0 mm | - | 710 W/m² | - |
| 1778011816 | 32.78° C | 26% | 1007 hPa | 0 mm | - | 552 W/m² | - |
| 1778011217 | 32.78° C | 26% | 1007.2 hPa | 0 mm | - | 699 W/m² | - |
| 1778010617 | 32.78° C | 27% | 1007.3 hPa | 0 mm | - | 670 W/m² | - |
| 1778010017 | 32.78° C | 28% | 1007.4 hPa | 0 mm | - | 618 W/m² | - |
| 1778009417 | 32.78° C | 31% | 1007.4 hPa | 0 mm | - | 830 W/m² | - |
| 1778008817 | 32.22° C | 31% | 1007.4 hPa | 0 mm | - | 679 W/m² | - |
| 1778008217 | 31.67° C | 32% | 1007.7 hPa | 0 mm | - | 797 W/m² | - |
| 1778007616 | 31.67° C | 33% | 1007.7 hPa | 0 mm | - | 671 W/m² | - |
| 1778007016 | 32.22° C | 34% | 1007.8 hPa | 0 mm | - | 898 W/m² | - |
| 1778006417 | 31.67° C | 35% | 1007.9 hPa | 0 mm | - | 601 W/m² | - |
| 1778005817 | 31.67° C | 38% | 1008 hPa | 0 mm | - | 739 W/m² | - |
| 1778005217 | 31.11° C | 41% | 1008.2 hPa | 0 mm | - | 786 W/m² | - |
| 1778004620 | 31.11° C | 45% | 1008.3 hPa | 0 mm | - | 728 W/m² | - |
| 1778004021 | 30.56° C | 43% | 1008.4 hPa | 0 mm | - | 762 W/m² | - |
| 1778003421 | 30° C | 45% | 1008.5 hPa | 0 mm | - | 871 W/m² | - |
| 1778002816 | 29.44° C | 49% | 1008.6 hPa | 0 mm | - | 764 W/m² | - |
| 1778002217 | 28.89° C | 52% | 1008.5 hPa | 0 mm | - | 762 W/m² | - |
| 1778001617 | 28.33° C | 56% | 1008.6 hPa | 0 mm | - | 628 W/m² | - |
| 1778001016 | 27.78° C | 57% | 1008.6 hPa | 0 mm | - | 631 W/m² | - |
| 1778000417 | 27.22° C | 60% | 1008.5 hPa | 0 mm | - | 681 W/m² | - |
| 1777999817 | 27.22° C | 63% | 1008.5 hPa | 0 mm | - | 465 W/m² | - |
* Rain latest hour (hover to see other rain measurements)
** Current wind speed in m/s (hover to see current wind gust speed)